Time;durP1;ratioP1;P1;durP2;ratioP2;P2;SDS_P1;SDS_P2;PMS_P1;PMS_P2;Temp;Humidity;BMP_temperature;BMP_pressure;BME280_temperature;BME280_humidity;BME280_pressure;Samples;Min_cycle;Max_cycle;Signal;HPM_P1;HPM_P2
2020/12/30 00:01:38;;;;;;;6.82;4.95;;;;;;;3.99;86.01;98653.22;5030996;28;20045;-82
2020/12/30 00:04:07;;;;;;;7.53;5.38;;;;;;;3.96;85.91;98644.66;5025724;28;20133;-81
2020/12/30 00:06:33;;;;;;;10.73;6.25;;;;;;;3.95;85.76;98646.41;5033409;28;20067;-82
2020/12/30 00:08:59;;;;;;;8.27;5.68;;;;;;;3.95;86.23;98640.31;5009509;28;20052;-83
2020/12/30 00:11:40;;;;;;;8.18;5.75;;;;;;;3.97;85.98;98651.59;5022669;28;20045;-84
2020/12/30 00:14:06;;;;;;;8.50;5.80;;;;;;;3.96;86.25;98647.25;5030460;28;20125;-82
2020/12/30 00:16:47;;;;;;;8.63;6.10;;;;;;;3.97;86.31;98652.44;5018477;28;20148;-81
2020/12/30 00:19:14;;;;;;;8.85;6.50;;;;;;;4.00;86.72;98651.44;5028647;28;20046;-85
2020/12/30 00:21:41;;;;;;;8.32;6.22;;;;;;;3.98;86.82;98656.75;5029860;28;20068;-81
2020/12/30 00:24:08;;;;;;;10.00;6.72;;;;;;;3.99;87.22;98652.34;5027382;28;20049;-85
2020/12/30 00:26:35;;;;;;;11.00;6.55;;;;;;;3.98;87.27;98650.66;5012136;28;20046;-88
2020/12/30 00:29:03;;;;;;;11.52;6.70;;;;;;;3.95;87.39;98650.81;5030962;28;20052;-82
2020/12/30 00:31:44;;;;;;;10.90;6.35;;;;;;;4.04;87.35;98655.63;5031002;28;20484;-83
2020/12/30 00:34:22;;;;;;;9.48;6.30;;;;;;;4.01;86.83;98659.22;5037096;28;20100;-86
2020/12/30 00:36:51;;;;;;;7.78;5.45;;;;;;;3.99;87.32;98654.97;5027625;28;20045;-84
2020/12/30 00:39:20;;;;;;;9.32;5.82;;;;;;;4.01;87.59;98661.00;5025403;28;20143;-86
2020/12/30 00:41:56;;;;;;;11.18;6.03;;;;;;;4.01;87.41;98671.47;5009725;28;20053;-83
2020/12/30 00:44:23;;;;;;;8.90;5.65;;;;;;;4.04;87.17;98668.72;5039062;28;20073;-81
2020/12/30 00:46:54;;;;;;;8.43;5.40;;;;;;;4.04;87.48;98666.94;5042633;28;20064;-85
2020/12/30 00:49:24;;;;;;;8.13;5.70;;;;;;;4.02;87.30;98663.53;5025877;28;20072;-82
2020/12/30 00:51:54;;;;;;;9.50;5.72;;;;;;;4.05;87.33;98663.41;5029951;28;20053;-85
2020/12/30 00:54:21;;;;;;;10.52;5.78;;;;;;;4.06;87.51;98667.72;5027477;28;20064;-83
2020/12/30 00:56:48;;;;;;;9.65;6.53;;;;;;;4.00;87.58;98660.16;5029247;28;20128;-85
2020/12/30 00:59:17;;;;;;;10.15;6.50;;;;;;;4.08;87.68;98678.13;5027510;28;20408;-84
2020/12/30 01:01:44;;;;;;;9.98;6.82;;;;;;;4.12;88.20;98675.28;5022817;28;20054;-84
2020/12/30 01:04:12;;;;;;;9.30;6.93;;;;;;;4.22;87.80;98680.94;5041125;28;20025;-82
2020/12/30 01:06:48;;;;;;;10.17;7.57;;;;;;;4.28;86.86;98682.38;5046498;28;20170;-84
2020/12/30 01:09:18;;;;;;;12.30;7.78;;;;;;;4.21;87.29;98685.31;5038515;28;20060;-82
2020/12/30 01:11:45;;;;;;;10.55;8.07;;;;;;;4.20;87.89;98688.00;5034867;28;20061;-84
2020/12/30 01:14:11;;;;;;;15.00;9.15;;;;;;;4.19;87.60;98691.56;5042485;28;20503;-86
2020/12/30 01:16:53;;;;;;;12.45;8.88;;;;;;;4.18;87.67;98693.31;5046302;28;20141;-84
2020/12/30 01:19:22;;;;;;;12.77;8.63;;;;;;;4.22;88.29;98697.50;5047340;28;20103;-85
2020/12/30 01:21:49;;;;;;;13.55;9.10;;;;;;;4.24;87.68;98697.44;5052662;28;20049;-85
2020/12/30 01:24:19;;;;;;;12.20;8.93;;;;;;;4.29;87.34;98686.69;5024215;28;20072;-85
2020/12/30 01:26:46;;;;;;;11.52;8.60;;;;;;;4.36;87.26;98698.59;5032777;28;20065;-86
2020/12/30 01:29:13;;;;;;;15.45;8.93;;;;;;;4.37;86.81;98701.16;5036378;28;20113;-86
2020/12/30 01:31:40;;;;;;;12.75;8.65;;;;;;;4.37;86.92;98701.16;5037607;28;20057;-85
2020/12/30 01:34:09;;;;;;;14.03;9.23;;;;;;;4.37;87.73;98702.91;5033230;28;20179;-85
2020/12/30 01:36:37;;;;;;;11.98;8.63;;;;;;;4.39;87.34;98704.53;5035792;28;20046;-86
2020/12/30 01:39:05;;;;;;;14.55;9.27;;;;;;;4.38;86.97;98694.97;5027184;28;20118;-85
2020/12/30 01:41:35;;;;;;;13.60;9.48;;;;;;;4.36;87.63;98702.06;4998744;28;20149;-85
2020/12/30 01:44:03;;;;;;;13.40;9.23;;;;;;;4.34;86.85;98700.44;5031202;28;20159;-86
2020/12/30 01:46:40;;;;;;;12.77;9.38;;;;;;;4.35;87.80;98705.59;5030626;28;20081;-87
2020/12/30 01:49:17;;;;;;;13.68;9.65;;;;;;;4.39;87.30;98707.16;5029963;28;20084;-85
2020/12/30 01:51:44;;;;;;;14.07;9.88;;;;;;;4.39;87.21;98708.94;5041076;28;20059;-86
2020/12/30 01:54:12;;;;;;;11.77;9.23;;;;;;;4.40;87.41;98714.09;5040379;28;20053;-85
2020/12/30 01:56:41;;;;;;;14.25;9.98;;;;;;;4.43;87.77;98715.69;5030672;28;20064;-85
2020/12/30 01:59:11;;;;;;;12.55;9.52;;;;;;;4.43;86.97;98713.09;5040269;28;20084;-85
2020/12/30 02:01:40;;;;;;;13.80;9.50;;;;;;;4.42;87.13;98725.34;5048496;22;20080;-80
2020/12/30 02:04:09;;;;;;;14.20;9.43;;;;;;;4.41;87.54;98712.31;5018142;28;20130;-80
2020/12/30 02:06:36;;;;;;;14.88;9.93;;;;;;;4.41;87.24;98717.53;5038228;28;20152;-79
2020/12/30 02:09:04;;;;;;;15.15;9.18;;;;;;;4.36;87.02;98711.69;5044535;28;20364;-82
2020/12/30 02:11:32;;;;;;;16.45;10.07;;;;;;;4.42;87.02;98714.84;5045195;28;20049;-80
2020/12/30 02:14:03;;;;;;;14.30;9.90;;;;;;;4.43;87.13;98718.31;5040536;28;20140;-80
2020/12/30 02:16:30;;;;;;;16.33;9.85;;;;;;;4.44;87.01;98713.00;5034274;28;20519;-81
2020/12/30 02:18:59;;;;;;;13.77;9.55;;;;;;;4.43;87.25;98719.16;5034667;28;20045;-80
2020/12/30 02:21:26;;;;;;;13.38;9.45;;;;;;;4.47;86.80;98722.50;5034214;28;20049;-80
2020/12/30 02:23:54;;;;;;;14.30;9.45;;;;;;;4.47;86.38;98722.50;5034214;28;20060;-80
2020/12/30 02:26:21;;;;;;;16.35;9.70;;;;;;;4.36;86.52;98724.81;5034073;28;20496;-80
2020/12/30 02:28:47;;;;;;;13.20;9.27;;;;;;;4.28;87.08;98719.06;5034204;28;20129;-80
2020/12/30 02:31:14;;;;;;;15.15;9.70;;;;;;;4.26;87.57;98723.53;5033981;28;20099;-79
2020/12/30 02:33:40;;;;;;;13.30;9.43;;;;;;;4.29;87.79;98721.63;5033965;28;20061;-79
2020/12/30 02:36:07;;;;;;;12.30;8.98;;;;;;;4.25;87.00;98722.69;5033835;28;20045;-79
2020/12/30 02:38:33;;;;;;;17.25;9.45;;;;;;;4.20;87.52;98715.06;5034665;28;20514;-78
2020/12/30 02:41:00;;;;;;;12.07;8.77;;;;;;;4.22;87.84;98723.69;5034596;28;20132;-78
2020/12/30 02:43:27;;;;;;;12.90;8.70;;;;;;;4.19;88.11;98723.84;5016399;28;20455;-80
2020/12/30 02:45:53;;;;;;;15.10;9.30;;;;;;;4.17;87.56;98722.22;5033772;28;20404;-81
2020/12/30 02:48:20;;;;;;;15.68;9.52;;;;;;;4.18;87.96;98716.06;5033777;28;20403;-80
2020/12/30 02:50:47;;;;;;;13.55;9.30;;;;;;;4.16;88.30;98717.88;5034311;28;20053;-80
2020/12/30 02:53:13;;;;;;;13.35;9.85;;;;;;;4.16;88.06;98728.38;5033584;28;20058;-78
2020/12/30 02:55:40;;;;;;;16.27;9.38;;;;;;;4.15;88.05;98721.44;5033221;28;20136;-80
2020/12/30 02:58:06;;;;;;;13.93;9.85;;;;;;;4.18;88.25;98726.53;5033309;28;20480;-79
2020/12/30 03:00:32;;;;;;;14.98;9.43;;;;;;;4.15;88.06;98727.53;5033866;28;20053;-79
2020/12/30 03:02:59;;;;;;;12.45;9.55;;;;;;;4.23;88.43;98735.03;5033915;28;20045;-78
2020/12/30 03:05:25;;;;;;;14.07;9.30;;;;;;;4.26;88.05;98744.50;5034301;28;20061;-80
2020/12/30 03:07:51;;;;;;;14.45;8.95;;;;;;;4.25;87.84;98735.78;5033105;28;20049;-79
2020/12/30 03:10:18;;;;;;;15.77;9.48;;;;;;;4.21;87.76;98731.63;5018390;28;20050;-79
2020/12/30 03:12:44;;;;;;;15.27;9.13;;;;;;;4.21;87.86;98731.63;5033712;28;20152;-80
2020/12/30 03:15:11;;;;;;;12.25;9.00;;;;;;;4.25;87.74;98741.00;5033346;28;20456;-79
2020/12/30 03:17:38;;;;;;;13.32;8.63;;;;;;;4.23;88.28;98740.28;5034088;28;20160;-78
2020/12/30 03:20:04;;;;;;;13.23;8.82;;;;;;;4.26;87.87;98739.25;5018462;28;20052;-79
2020/12/30 03:22:31;;;;;;;13.75;8.52;;;;;;;4.25;87.97;98737.59;5034842;28;20068;-80
2020/12/30 03:24:57;;;;;;;14.55;8.60;;;;;;;4.29;88.10;98739.09;5033988;28;20467;-81
2020/12/30 03:27:23;;;;;;;11.82;8.32;;;;;;;4.37;88.00;98735.22;5033388;28;20045;-79
2020/12/30 03:29:50;;;;;;;11.32;8.27;;;;;;;4.43;87.19;98742.75;5033633;28;20049;-78
2020/12/30 03:32:16;;;;;;;12.95;8.65;;;;;;;4.42;87.62;98745.44;5033821;28;20049;-81
2020/12/30 03:34:42;;;;;;;12.38;8.35;;;;;;;4.40;88.39;98740.31;5035384;28;20049;-80
2020/12/30 03:37:09;;;;;;;15.70;8.60;;;;;;;4.36;88.46;98735.28;5034395;28;20129;-79
2020/12/30 03:39:35;;;;;;;15.15;9.05;;;;;;;4.37;88.07;98753.56;5035487;28;20122;-80
2020/12/30 03:42:01;;;;;;;12.45;8.93;;;;;;;4.37;88.64;98747.47;5042133;28;20128;-81
2020/12/30 03:44:28;;;;;;;12.40;8.80;;;;;;;4.40;88.79;98748.19;5037267;28;20145;-80
2020/12/30 03:46:54;;;;;;;12.55;9.13;;;;;;;4.43;89.24;98748.00;5033543;28;20085;-80
2020/12/30 03:49:21;;;;;;;15.05;9.48;;;;;;;4.38;89.47;98743.94;5033427;28;20074;-79
2020/12/30 03:51:47;;;;;;;17.13;10.63;;;;;;;4.39;89.49;98746.47;5032906;28;20468;-78
2020/12/30 03:54:13;;;;;;;14.85;10.07;;;;;;;4.35;89.62;98749.31;5032827;28;20510;-79
2020/12/30 03:56:39;;;;;;;15.75;10.15;;;;;;;4.30;90.10;98746.91;5032706;28;20053;-79
2020/12/30 03:59:06;;;;;;;15.27;10.15;;;;;;;4.25;90.08;98737.59;5032969;28;20056;-79
2020/12/30 04:01:32;;;;;;;15.60;10.90;;;;;;;4.24;90.49;98741.97;5015328;28;20052;-80
2020/12/30 04:03:58;;;;;;;13.93;10.20;;;;;;;4.25;90.88;98748.06;5032302;28;20548;-80
2020/12/30 04:06:25;;;;;;;18.05;11.00;;;;;;;4.25;90.52;98742.81;5032445;28;20148;-79
2020/12/30 04:08:51;;;;;;;18.02;11.48;;;;;;;4.21;91.37;98747.34;5032835;28;20045;-81
2020/12/30 04:11:17;;;;;;;17.40;12.43;;;;;;;4.20;91.78;98748.28;5032758;28;20079;-79
2020/12/30 04:13:44;;;;;;;15.75;12.40;;;;;;;4.20;91.54;98756.13;5032702;28;20058;-78
2020/12/30 04:16:10;;;;;;;16.65;12.38;;;;;;;4.16;91.40;98739.69;5032899;28;20550;-80
2020/12/30 04:18:37;;;;;;;17.45;11.48;;;;;;;4.15;92.09;98750.25;5033802;28;20065;-80
2020/12/30 04:21:03;;;;;;;18.00;11.48;;;;;;;4.16;92.23;98751.94;5036693;28;20148;-79
2020/12/30 04:23:30;;;;;;;18.23;12.10;;;;;;;4.14;92.38;98757.25;5036739;28;20132;-81
2020/12/30 04:25:56;;;;;;;17.80;11.75;;;;;;;4.14;92.63;98757.25;5036486;28;20053;-79
2020/12/30 04:28:22;;;;;;;19.92;12.73;;;;;;;4.10;92.72;98760.94;5036364;28;20464;-79
2020/12/30 04:30:49;;;;;;;18.95;11.98;;;;;;;4.11;92.83;98762.63;5036705;28;20079;-80
2020/12/30 04:33:15;;;;;;;16.63;12.13;;;;;;;4.15;92.89;98764.19;5036641;28;20143;-79
2020/12/30 04:35:41;;;;;;;16.63;11.30;;;;;;;4.16;93.34;98763.28;5036677;28;20132;-80
2020/12/30 04:38:08;;;;;;;16.13;11.20;;;;;;;4.18;93.47;98757.97;5036368;28;20120;-79
2020/12/30 04:40:35;;;;;;;16.67;11.55;;;;;;;4.17;92.79;98756.25;5036578;28;20073;-79
2020/12/30 04:43:04;;;;;;;16.10;11.40;;;;;;;4.14;93.66;98762.50;5035801;28;20052;-79
2020/12/30 04:45:33;;;;;;;17.38;11.23;;;;;;;4.07;93.46;98761.09;5036662;28;20049;-80
2020/12/30 04:48:00;;;;;;;15.45;11.40;;;;;;;4.07;93.69;98760.25;5035936;28;20106;-78
2020/12/30 04:50:28;;;;;;;16.88;11.00;;;;;;;4.07;93.45;98768.09;5036160;28;20129;-79
2020/12/30 04:52:54;;;;;;;15.05;10.85;;;;;;;4.05;93.84;98768.19;5036638;28;20132;-79
2020/12/30 04:55:24;;;;;;;18.88;12.20;;;;;;;4.02;94.19;98762.22;5036010;28;20160;-80
2020/12/30 04:57:57;;;;;;;18.42;11.60;;;;;;;4.02;93.97;98764.84;5037101;28;20088;-80
2020/12/30 05:00:27;;;;;;;17.42;12.82;;;;;;;4.03;94.27;98766.53;5022114;28;20049;-82
2020/12/30 05:02:56;;;;;;;17.42;12.20;;;;;;;4.04;94.57;98763.00;5039527;28;20161;-81
2020/12/30 05:05:23;;;;;;;16.83;11.77;;;;;;;4.01;94.39;98769.22;5036270;28;20111;-81
2020/12/30 05:07:49;;;;;;;19.42;12.23;;;;;;;3.99;94.50;98760.59;5037292;28;20045;-80
2020/12/30 05:10:17;;;;;;;18.80;12.85;;;;;;;3.97;94.97;98769.44;5036990;28;20075;-81
2020/12/30 05:12:43;;;;;;;16.45;12.20;;;;;;;4.02;94.71;98777.94;5036280;28;20132;-79
2020/12/30 05:15:09;;;;;;;18.77;12.15;;;;;;;3.97;94.61;98779.91;5036262;28;20120;-79
2020/12/30 05:17:36;;;;;;;17.25;12.32;;;;;;;3.95;94.77;98781.75;5035760;28;20053;-80
2020/12/30 05:20:08;;;;;;;15.93;11.02;;;;;;;3.93;94.77;98784.47;5035544;28;20149;-78
2020/12/30 05:22:35;;;;;;;14.98;10.90;;;;;;;3.98;94.95;98777.22;5035403;28;20115;-79
2020/12/30 05:25:06;;;;;;;14.27;10.32;;;;;;;4.03;94.41;98790.97;5035370;28;20128;-78
2020/12/30 05:27:33;;;;;;;16.30;10.40;;;;;;;4.03;94.62;98793.59;5035680;28;20107;-78
2020/12/30 05:30:01;;;;;;;12.32;9.48;;;;;;;4.05;95.02;98791.75;5036070;28;20064;-78
2020/12/30 05:32:27;;;;;;;14.25;9.60;;;;;;;4.02;94.45;98793.66;5035741;28;20046;-80
2020/12/30 05:34:54;;;;;;;17.73;10.50;;;;;;;4.00;94.29;98793.72;5034885;28;20144;-80
2020/12/30 05:37:33;;;;;;;15.43;9.60;;;;;;;4.03;94.05;98801.44;5034582;28;20045;-80
2020/12/30 05:39:59;;;;;;;17.50;10.15;;;;;;;4.05;94.74;98814.47;5035104;28;20045;-79
2020/12/30 05:42:26;;;;;;;13.88;9.40;;;;;;;4.06;94.59;98805.69;5035101;28;20057;-79
2020/12/30 05:44:55;;;;;;;16.90;9.85;;;;;;;4.05;94.35;98810.09;5035110;28;20080;-80
2020/12/30 05:47:23;;;;;;;13.88;9.88;;;;;;;4.05;94.38;98810.09;5035013;28;20073;-78
2020/12/30 05:49:54;;;;;;;18.17;10.40;;;;;;;4.12;94.61;98818.50;5034912;28;20437;-80
2020/12/30 05:52:25;;;;;;;12.60;9.45;;;;;;;4.10;94.74;98821.19;5034653;28;20053;-79
2020/12/30 05:55:04;;;;;;;14.25;9.88;;;;;;;4.12;93.90;98823.72;5035337;28;20049;-80
2020/12/30 05:57:35;;;;;;;15.02;10.00;;;;;;;4.12;94.29;98821.13;5034044;28;20464;-80
2020/12/30 06:00:06;;;;;;;14.48;9.70;;;;;;;4.15;94.30;98826.22;5034557;28;20049;-80
2020/12/30 06:02:33;;;;;;;10.77;8.93;;;;;;;4.19;94.79;98833.03;5034998;28;20141;-83
2020/12/30 06:05:13;;;;;;;13.15;9.90;;;;;;;4.22;94.62;98838.13;5016915;28;20061;-79
2020/12/30 06:07:42;;;;;;;15.53;9.73;;;;;;;4.40;93.61;98841.66;5033909;28;20057;-81
2020/12/30 06:10:10;;;;;;;13.77;9.32;;;;;;;4.51;93.04;98839.38;5034191;28;20049;-79
2020/12/30 06:12:51;;;;;;;14.77;9.00;;;;;;;4.50;92.41;98835.91;5034075;28;20080;-79
2020/12/30 06:15:19;;;;;;;14.45;10.02;;;;;;;4.48;91.91;98837.75;5034853;28;20049;-80
2020/12/30 06:17:59;;;;;;;15.82;10.00;;;;;;;4.40;92.62;98839.06;5033942;28;20053;-78
2020/12/30 06:20:31;;;;;;;15.57;10.23;;;;;;;4.37;92.68;98842.66;5035159;28;20123;-79
2020/12/30 06:23:08;;;;;;;18.80;11.23;;;;;;;4.35;93.03;98848.88;5033974;28;20057;-78
2020/12/30 06:25:40;;;;;;;12.90;10.27;;;;;;;4.36;93.09;98851.44;5016560;28;20084;-79
2020/12/30 06:28:09;;;;;;;17.42;11.25;;;;;;;4.32;93.09;98859.50;5034867;28;20053;-81
2020/12/30 06:30:41;;;;;;;17.17;11.10;;;;;;;4.32;93.99;98856.88;5034254;28;20108;-80
2020/12/30 06:33:09;;;;;;;18.45;11.30;;;;;;;4.30;93.64;98854.34;5035003;28;20084;-80
2020/12/30 06:35:37;;;;;;;15.05;10.95;;;;;;;4.27;94.08;98851.84;5035433;28;20053;-81
2020/12/30 06:38:27;;;;;;;18.65;11.95;;;;;;;4.33;93.98;98862.06;5033957;28;20064;-78
2020/12/30 06:40:57;;;;;;;16.13;11.25;;;;;;;4.37;93.96;98868.00;5033311;28;20049;-80
2020/12/30 06:43:35;;;;;;;16.60;11.38;;;;;;;4.40;93.50;98873.97;5034047;28;20211;-79
2020/12/30 06:46:02;;;;;;;14.38;10.63;;;;;;;4.41;93.83;98867.78;5033338;28;20603;-81
2020/12/30 06:48:29;;;;;;;16.58;10.73;;;;;;;4.43;93.38;98868.56;5034095;28;20090;-79
2020/12/30 06:51:14;;;;;;;13.75;10.25;;;;;;;4.36;93.33;98868.94;5034678;28;20084;-79
2020/12/30 06:53:48;;;;;;;15.05;11.15;;;;;;;4.43;93.88;98883.44;5034220;28;20046;-78
2020/12/30 06:56:15;;;;;;;14.75;9.75;;;;;;;4.44;93.09;98874.66;5033620;28;20053;-79
2020/12/30 06:58:43;;;;;;;14.30;9.48;;;;;;;4.45;92.51;98885.06;5033233;28;20346;-79
2020/12/30 07:01:20;;;;;;;15.55;9.85;;;;;;;4.43;92.86;98884.28;5033365;28;20081;-80
2020/12/30 07:03:49;;;;;;;15.57;10.43;;;;;;;4.42;92.38;98882.59;5033267;28;20511;-79
2020/12/30 07:06:28;;;;;;;15.38;10.27;;;;;;;4.40;92.53;98888.84;5033596;28;20148;-80
2020/12/30 07:09:05;;;;;;;13.48;9.77;;;;;;;4.39;93.44;98887.16;5016288;28;20136;-79
2020/12/30 07:11:51;;;;;;;12.57;8.82;;;;;;;4.46;93.09;98899.88;5033900;28;20049;-80
2020/12/30 07:14:23;;;;;;;12.68;9.35;;;;;;;4.45;93.11;98902.56;5033521;28;20052;-80
2020/12/30 07:17:04;;;;;;;14.45;8.65;;;;;;;4.47;93.10;98901.59;5016016;28;20061;-79
2020/12/30 07:19:43;;;;;;;11.90;8.32;;;;;;;4.52;93.38;98907.47;5016502;28;20064;-80
2020/12/30 07:22:13;;;;;;;11.05;8.48;;;;;;;4.48;92.85;98910.28;5033323;28;20072;-78
2020/12/30 07:24:49;;;;;;;13.23;8.02;;;;;;;4.52;92.78;98912.72;5033546;28;20053;-80
2020/12/30 07:27:16;;;;;;;10.68;7.95;;;;;;;4.50;92.44;98913.69;5019260;28;20049;-82
2020/12/30 07:29:46;;;;;;;10.48;7.70;;;;;;;4.58;92.14;98924.66;5048178;28;20053;-82
2020/12/30 07:32:14;;;;;;;10.13;7.13;;;;;;;4.51;91.63;98913.63;5048827;28;20477;-79
2020/12/30 07:34:40;;;;;;;10.40;7.20;;;;;;;4.53;92.19;98916.19;5043088;28;20135;-82
2020/12/30 07:37:08;;;;;;;11.98;7.43;;;;;;;4.54;91.77;98929.22;5034138;28;20046;-82
2020/12/30 07:39:39;;;;;;;9.63;7.03;;;;;;;4.52;91.95;98927.59;5033884;28;20129;-81
2020/12/30 07:42:07;;;;;;;11.10;7.18;;;;;;;4.53;92.65;98929.28;5033494;28;20061;-80
2020/12/30 07:44:34;;;;;;;9.77;6.72;;;;;;;4.54;91.94;98929.22;5033089;28;20045;-81
2020/12/30 07:47:02;;;;;;;11.30;6.38;;;;;;;4.55;91.44;98937.94;5033294;28;20052;-80
2020/12/30 07:49:29;;;;;;;7.40;6.10;;;;;;;4.52;91.13;98944.19;5033750;28;20188;-81
2020/12/30 07:51:57;;;;;;;8.77;6.10;;;;;;;4.52;91.69;98944.19;5034607;28;20127;-81
2020/12/30 07:54:25;;;;;;;9.38;5.78;;;;;;;4.54;91.33;98954.59;5019442;28;20049;-80
2020/12/30 07:56:59;;;;;;;9.35;5.65;;;;;;;4.56;91.52;98960.63;5036300;28;20041;-81
2020/12/30 07:59:26;;;;;;;11.13;6.22;;;;;;;4.56;91.58;98971.94;5037119;28;20063;-80
2020/12/30 08:02:02;;;;;;;8.35;5.80;;;;;;;4.57;91.59;98965.75;5036253;28;20049;-81
2020/12/30 08:04:31;;;;;;;9.63;5.85;;;;;;;4.67;92.29;98971.47;5018901;28;20093;-79
2020/12/30 08:06:58;;;;;;;11.23;5.68;;;;;;;4.65;91.09;98977.69;5035429;28;20061;-77
2020/12/30 08:09:36;;;;;;;9.45;5.60;;;;;;;4.67;91.12;98986.34;5035909;28;20059;-80
2020/12/30 08:12:07;;;;;;;8.57;5.20;;;;;;;4.68;90.59;98988.91;5018982;28;20045;-79
2020/12/30 08:14:36;;;;;;;6.22;4.70;;;;;;;4.62;90.74;98983.06;5036478;28;20120;-80
2020/12/30 08:17:08;;;;;;;6.60;4.80;;;;;;;4.65;90.38;98996.91;5036477;28;20081;-79
2020/12/30 08:19:39;;;;;;;6.35;4.75;;;;;;;4.62;91.20;98990.94;5036727;28;20049;-79
2020/12/30 08:22:09;;;;;;;;;;;;;;;4.71;90.83;98999.25;5037132;28;20057;-78
2020/12/30 08:24:40;;;;;;;9.45;4.97;;;;;;;4.74;90.13;99004.34;5040032;28;20300;-80
2020/12/30 08:27:08;;;;;;;11.65;5.18;;;;;;;4.74;90.23;99011.34;5044368;28;20476;-80
2020/12/30 08:29:56;;;;;;;15.38;5.75;;;;;;;4.74;90.62;99006.97;5036819;28;20069;-80
2020/12/30 08:32:34;;;;;;;10.25;5.75;;;;;;;4.77;90.29;99019.09;5035919;28;20380;-80
2020/12/30 08:35:24;;;;;;;7.53;5.70;;;;;;;4.71;89.92;99006.25;5036551;28;20149;-81
2020/12/30 08:38:10;;;;;;;11.00;5.28;;;;;;;4.69;90.00;99019.44;5036923;28;20049;-81
2020/12/30 08:40:39;;;;;;;6.65;4.90;;;;;;;4.65;89.75;99014.41;5036122;28;20053;-82
2020/12/30 08:43:27;;;;;;;11.73;5.85;;;;;;;4.66;90.84;99021.34;5036054;28;20049;-81
2020/12/30 08:46:01;;;;;;;7.78;6.00;;;;;;;4.72;90.49;99028.94;5035996;28;20136;-81
2020/12/30 08:48:31;;;;;;;10.43;5.63;;;;;;;4.73;90.64;99028.00;5036097;28;20065;-83
2020/12/30 08:50:58;;;;;;;6.65;4.13;;;;;;;4.74;90.23;99032.31;5036001;28;20132;-84
2020/12/30 08:53:38;;;;;;;9.95;6.43;;;;;;;4.68;90.21;99037.88;5036739;28;20065;-82
2020/12/30 08:56:07;;;;;;;9.57;5.40;;;;;;;4.65;90.77;99028.34;5036478;28;20096;-81
2020/12/30 08:58:34;;;;;;;10.25;5.60;;;;;;;4.67;90.41;99033.53;5036084;28;20053;-82
2020/12/30 09:01:00;;;;;;;9.18;5.68;;;;;;;4.68;90.36;99035.25;5035815;28;20141;-81
2020/12/30 09:03:28;;;;;;;8.63;5.55;;;;;;;4.73;89.20;99033.25;5035083;28;20099;-80
2020/12/30 09:05:57;;;;;;;9.13;5.05;;;;;;;4.74;89.41;99043.66;5017542;28;20240;-79
2020/12/30 09:08:29;;;;;;;13.25;5.50;;;;;;;4.80;89.86;99050.41;5036269;28;20057;-82
2020/12/30 09:10:57;;;;;;;8.07;5.20;;;;;;;4.77;89.63;99048.78;5037138;28;20045;-81
2020/12/30 09:13:29;;;;;;;8.60;4.53;;;;;;;4.77;89.21;99047.94;5037683;28;20100;-82
2020/12/30 09:16:03;;;;;;;6.45;4.50;;;;;;;4.84;89.43;99063.34;5037878;28;20113;-83
2020/12/30 09:18:31;;;;;;;9.07;5.20;;;;;;;4.84;89.02;99054.63;5037154;28;20049;-82
2020/12/30 09:20:58;;;;;;;9.32;4.82;;;;;;;4.88;88.73;99056.16;5036744;28;20096;-82
2020/12/30 09:23:26;;;;;;;9.57;4.82;;;;;;;4.94;88.48;99063.75;5044664;28;20053;-83
2020/12/30 09:25:53;;;;;;;9.32;4.95;;;;;;;4.94;88.13;99069.84;5049076;28;20061;-83
2020/12/30 09:28:24;;;;;;;9.30;4.80;;;;;;;4.97;88.57;99078.50;5025606;28;20061;-81
2020/12/30 09:30:55;;;;;;;7.50;4.65;;;;;;;5.02;88.55;99080.03;5041045;28;20073;-81
2020/12/30 09:33:24;;;;;;;8.07;4.60;;;;;;;5.07;89.06;99079.78;5044322;28;20068;-82
2020/12/30 09:35:51;;;;;;;8.05;4.88;;;;;;;5.37;92.56;99083.63;5045864;28;20353;-83
2020/12/30 09:38:24;;;;;;;7.75;4.28;;;;;;;5.38;87.05;99085.31;5035771;28;20140;-80
2020/12/30 09:40:55;;;;;;;5.93;4.13;;;;;;;5.28;85.95;99089.31;5035338;28;20093;-80
2020/12/30 09:43:23;;;;;;;7.47;3.90;;;;;;;5.24;86.56;99088.59;5035207;28;20133;-78
2020/12/30 09:45:56;;;;;;;6.38;4.15;;;;;;;5.30;85.75;99087.47;5034498;28;20060;-79
2020/12/30 09:48:23;;;;;;;6.72;4.07;;;;;;;5.35;85.82;99089.91;5034396;28;20054;-80
2020/12/30 09:50:51;;;;;;;8.50;4.35;;;;;;;5.36;86.00;99086.31;5035251;28;20107;-79
2020/12/30 09:53:18;;;;;;;7.25;3.70;;;;;;;5.39;85.55;99092.28;5038778;28;20117;-82
2020/12/30 09:55:45;;;;;;;6.40;4.22;;;;;;;5.36;86.06;99091.56;5036922;28;20049;-82
2020/12/30 09:58:13;;;;;;;7.47;4.15;;;;;;;5.38;85.76;99100.22;5037353;28;20111;-80
2020/12/30 10:00:39;;;;;;;7.68;4.60;;;;;;;5.40;86.10;99095.75;5035185;28;20050;-79
2020/12/30 10:03:06;;;;;;;6.93;4.38;;;;;;;5.36;86.37;99091.56;5020690;28;20059;-80
2020/12/30 10:05:32;;;;;;;8.02;4.22;;;;;;;5.43;85.08;99098.25;5038816;28;20142;-78
2020/12/30 10:07:59;;;;;;;5.80;4.28;;;;;;;5.43;85.44;99095.63;5035735;28;20049;-82
2020/12/30 10:10:26;;;;;;;5.93;4.20;;;;;;;5.45;85.28;99097.25;5034735;28;20056;-81
2020/12/30 10:12:53;;;;;;;6.22;3.85;;;;;;;5.36;85.68;99100.28;5035369;28;20050;-80
2020/12/30 10:15:20;;;;;;;6.47;3.80;;;;;;;5.33;85.95;99094.38;5034482;28;20064;-81
2020/12/30 10:25:54;;;;;;;7.90;5.30;;;;;;;5.52;84.62;99103.91;5004680;28;20073;-82
2020/12/30 10:28:20;;;;;;;8.40;3.45;;;;;;;5.53;84.74;99102.13;4998382;28;20053;-83
2020/12/30 10:30:47;;;;;;;5.93;3.53;;;;;;;5.59;84.30;99100.09;5366105;22;20576;-83
2020/12/30 10:33:13;;;;;;;6.30;3.78;;;;;;;5.70;83.93;99101.34;5006932;28;20050;-80
2020/12/30 10:35:41;;;;;;;4.55;3.60;;;;;;;5.78;83.41;99102.69;4988817;28;20526;-85
2020/12/30 10:38:07;;;;;;;3.80;3.30;;;;;;;5.82;82.90;99093.75;5004378;28;20511;-85
2020/12/30 10:40:34;;;;;;;4.97;3.35;;;;;;;5.86;82.63;99097.91;5006661;28;20154;-86
2020/12/30 10:43:03;;;;;;;5.25;3.15;;;;;;;5.88;81.97;99105.72;5012288;28;20094;-84
2020/12/30 10:45:30;;;;;;;6.13;3.35;;;;;;;5.94;82.09;99105.47;5013605;28;20054;-83
2020/12/30 10:47:57;;;;;;;4.82;3.10;;;;;;;6.05;81.21;99103.16;5006650;28;20053;-81
2020/12/30 10:50:23;;;;;;;4.07;2.75;;;;;;;5.95;80.20;99101.91;5010119;28;20042;-86
2020/12/30 10:52:49;;;;;;;4.47;2.88;;;;;;;5.90;81.75;99096.88;5005269;28;20046;-85
2020/12/30 10:55:17;;;;;;;4.60;2.78;;;;;;;5.80;81.48;99107.88;5003611;28;20473;-85
2020/12/30 10:57:44;;;;;;;5.57;2.97;;;;;;;5.72;82.51;99100.34;5006609;28;20045;-86
2020/12/30 11:00:11;;;;;;;6.32;3.22;;;;;;;5.65;83.08;99104.22;5001168;28;20172;-82
2020/12/30 11:02:38;;;;;;;5.57;3.38;;;;;;;5.68;82.38;99100.56;5001365;28;20113;-84
2020/12/30 11:05:05;;;;;;;5.57;3.05;;;;;;;5.71;81.76;99109.16;5007191;28;20085;-84
2020/12/30 11:07:32;;;;;;;5.13;2.70;;;;;;;5.70;81.64;99106.59;5002685;28;20053;-82
2020/12/30 11:09:59;;;;;;;4.75;3.00;;;;;;;5.68;81.90;99106.66;5010676;28;20060;-85
2020/12/30 11:12:25;;;;;;;3.38;2.72;;;;;;;5.67;81.98;99098.88;4990403;28;20439;-84
2020/12/30 11:14:51;;;;;;;3.67;3.10;;;;;;;5.74;81.92;99103.75;5007946;28;20054;-84
2020/12/30 11:17:19;;;;;;;5.45;3.10;;;;;;;5.87;81.41;99099.63;5004923;28;20046;-84
2020/12/30 11:19:45;;;;;;;6.78;4.20;;;;;;;5.97;81.60;99111.44;5005728;28;20540;-84
2020/12/30 11:22:12;;;;;;;6.13;4.10;;;;;;;6.03;81.63;99101.53;5005562;28;20080;-83
2020/12/30 11:24:39;;;;;;;5.93;3.97;;;;;;;6.07;81.16;99103.94;5003497;28;20057;-83
2020/12/30 11:27:05;;;;;;;7.03;3.78;;;;;;;6.25;80.88;99110.91;5000963;28;20056;-81
2020/12/30 11:29:31;;;;;;;4.32;3.00;;;;;;;6.41;80.13;99111.00;5001326;28;20054;-82
2020/12/30 11:31:58;;;;;;;5.60;3.20;;;;;;;6.51;79.53;99106.97;5003909;28;20132;-82
2020/12/30 11:34:25;;;;;;;8.77;3.67;;;;;;;6.49;78.68;99110.59;5005219;28;20475;-86
2020/12/30 11:36:52;;;;;;;6.13;3.70;;;;;;;6.41;79.03;99108.38;5007756;28;20145;-85
2020/12/30 11:39:19;;;;;;;4.50;3.00;;;;;;;6.40;79.28;99119.81;5005594;28;20081;-83
2020/12/30 11:41:50;;;;;;;4.28;3.20;;;;;;;6.42;78.16;99112.69;5004490;28;20070;-85
2020/12/30 11:44:17;;;;;;;4.65;3.15;;;;;;;6.40;78.23;99109.28;5005330;28;20046;-85
2020/12/30 11:46:44;;;;;;;4.75;3.38;;;;;;;6.37;78.56;99117.34;5006579;28;20145;-85
2020/12/30 11:49:10;;;;;;;5.78;3.10;;;;;;;6.38;79.21;99112.94;5007278;28;20137;-84
2020/12/30 11:51:40;;;;;;;5.55;2.78;;;;;;;6.40;78.95;99106.66;5008071;28;20134;-85